Weather at Pakhokku Airport

Public forecast

Using degrees Celsius for public forecast. Weather courtesy of forecast.io.

Closest aviation weather report (METAR) to Pakhokku Airport

Closest report is Mandalay International Airport, 51.6 nm (95.6 km) ENE. Retrieved 2020/10/20 02:30 UTC (17 minutes ago):

VYMD 200230Z 14003KT 7000 BKN020 30/18 Q1009 NOSIG

Closest aviation forecast (TAF) to Pakhokku Airport

Closest forecast is Mandalay International Airport, 51.6 nm (95.6 km) ENE. Retrieved 2020-10-20 00:00 UTC (3 hours ago):

TAF VYMD 192300Z 2000/2024 15005KT 6000 SCT020 TEMPO 2000/2006 18007KT 6000 BKN020 FEW025CB